Flight NumberPSR9999 Date28.07.2020
Departure AirportMMMX Arrival AirportKSFO
Departure Time20.40Arrival Time0.51
Pilot In CommandJason Ballard Block Time4.20 Hours
Pilot Rating100 % AircraftHA-LOB [ 737-700C ]


Distance1,637.00 Nm. Passengers0
Fuel Used9,197 Kg. Cargo354 Kg
Expense Details Income Details
Fuel Cost9,683 v$Ticket Sales0 v$
Pilot Salary13,817 v$ Cargo income932.00 v$
Crew Salary0 v$ Bonus23,029 v$
Gross Profit124,357 v$ ( 3,108,925 v$ )

Client Versionv2.3.3 Max Simrate1
Flight Critique Pilot CommentsPMDG B737, Visual 28R, KSFO 272356Z 30020KT 10SM FEW009 FEW038 19/12 A2989.

[ Back ]
FSA VA Integration Pack
Copyright © 2010 FSAirlines.net. Version : 0.1.1